Accueil
METAR-TAF:

METAR-TAF

Aéroports :

Aéroport de Durham Tees Valley

Durham, Angleterre

latitude: 54-31N, longitude: 001-25W, altitude: 37 m

Observation

Le bulletin a été fait il y a 2 heures et 22 minutes, à 21:50 UTC
Vent 8 kt de ouest
Température 8°C
Humidité 76%
Pression 1032 hPa
Visibilité 10 km ou plus
Nuages fragmentés à une hauteur de 4500 ft

METAR: EGNV 262150Z 27008KT 9999 BKN045 08/04 Q1032

Heure: 00:12 (00:12 UTC)

Prévision

Le bulletin a été fait il y a 7 heures et 14 minutes, à 16:58 UTC
Prévision valable du 26 à 18 UTC au 26 à 22 UTC
Vent 9 kt de ouest/nord-ouest
Visibilité 10 km ou plus
Nuages épars à une hauteur de 4500 ft

TAF: EGNV 261658Z 2618/2622 30009KT 9999 SCT045

Observations et prévisions météorologiques de plus de 4000 aéroports (messages METAR et TAF).

Les stations disponibles sont représentées par des disques jaunes et rouges sur la carte.

Passer la souris dessus pour voir le nom de la station.

Cliquer dessus pour voir les observations et prévisions météorologiques.

Pour changer de carte: cliquez sur les boutons verts avec une croix noire pour zoomer, sur le bouton vert avec un tiret pour effectuer un zoom arrière, ou sur les flèches vertes pour les cartes adjacentes.


METAR-TAF: